createdAt,value
2022-10-19T05:25:13.141Z,16.73
2022-10-19T05:28:16.461Z,18.37
2022-10-19T05:31:26.389Z,17.00
2022-10-19T05:34:29.511Z,18.52
2022-10-19T05:37:35.102Z,25.23
2022-10-19T05:40:38.455Z,20.75
2022-10-19T05:43:42.474Z,19.83
2022-10-19T05:46:45.991Z,19.20
2022-10-19T05:49:51.375Z,20.85
2022-10-19T05:52:54.715Z,19.40
2022-10-19T05:56:00.048Z,95.43
2022-10-19T05:59:05.899Z,29.12
2022-10-19T06:02:14.299Z,25.50
2022-10-19T06:05:17.421Z,25.75
2022-10-19T06:08:22.394Z,18.02
2022-10-19T06:11:45.189Z,21.55
2022-10-19T06:15:01.277Z,23.85
2022-10-19T06:18:04.887Z,23.30
2022-10-19T06:21:11.369Z,20.23
2022-10-19T06:24:14.749Z,18.23
2022-10-19T06:27:19.987Z,21.40
2022-10-19T06:30:25.599Z,25.98
2022-10-19T06:33:30.035Z,24.40
2022-10-19T06:36:34.527Z,19.65
2022-10-19T06:39:37.213Z,20.33
2022-10-19T06:42:40.522Z,20.23
2022-10-19T06:45:43.755Z,17.50
2022-10-19T06:49:16.702Z,22.75
2022-10-19T06:52:24.241Z,18.33
2022-10-19T06:55:48.119Z,17.92
2022-10-19T06:58:52.233Z,15.73
2022-10-19T07:02:15.427Z,18.67
2022-10-19T07:05:18.439Z,16.15
2022-10-19T07:08:21.961Z,13.80
2022-10-19T07:11:24.988Z,17.27
2022-10-19T07:14:31.575Z,15.70
2022-10-19T07:17:46.397Z,13.02
2022-10-19T07:21:00.757Z,12.63
2022-10-19T07:24:23.145Z,10.27
2022-10-19T07:27:37.834Z,10.70
2022-10-19T07:31:06.376Z,11.32
2022-10-19T07:34:29.482Z,10.57
2022-10-19T07:37:32.533Z,14.32
2022-10-19T07:40:38.196Z,8.00
2022-10-19T07:43:42.662Z,7.35
2022-10-19T07:46:45.512Z,6.68
2022-10-19T07:49:48.155Z,6.40
2022-10-19T07:52:54.697Z,8.05
2022-10-19T07:56:07.165Z,6.18
2022-10-19T08:10:47.154Z,5.62
2022-10-19T08:14:27.090Z,5.87
2022-10-19T08:17:30.938Z,5.07
2022-10-19T08:21:22.788Z,5.15
2022-10-19T08:24:46.062Z,6.10
2022-10-19T08:27:48.984Z,7.32
2022-10-19T08:30:52.122Z,6.05
2022-10-19T08:33:55.770Z,5.22
2022-10-19T08:36:58.431Z,4.18
2022-10-19T08:40:01.440Z,7.70
2022-10-19T08:43:30.133Z,3.47
2022-10-19T08:46:55.947Z,3.15
2022-10-19T08:49:59.896Z,5.68
2022-10-19T08:53:11.437Z,2.60
2022-10-19T08:56:45.830Z,5.00
2022-10-19T09:00:12.544Z,3.62
2022-10-19T09:03:56.832Z,2.30
2022-10-19T09:07:26.014Z,4.43
2022-10-19T09:10:32.583Z,2.15
2022-10-19T09:14:04.079Z,1.90
2022-10-19T09:17:28.921Z,1.60
2022-10-19T09:20:41.549Z,5.40
2022-10-19T09:24:21.165Z,4.82
2022-10-19T09:28:45.556Z,4.28
2022-10-19T09:31:53.919Z,2.17
2022-10-19T09:35:07.389Z,1.92
2022-10-19T09:38:32.146Z,1.77
2022-10-19T09:41:59.342Z,1.85
2022-10-19T09:45:14.656Z,2.30
2022-10-19T09:48:37.756Z,1.52
2022-10-19T09:51:47.090Z,2.33
2022-10-19T09:55:03.578Z,1.65
2022-10-19T09:58:13.435Z,2.00
2022-10-19T10:01:41.477Z,1.80
2022-10-19T10:05:15.757Z,1.60
2022-10-19T10:08:22.919Z,15.80
2022-10-19T10:11:48.074Z,1.87
2022-10-19T10:14:56.508Z,2.30
2022-10-19T10:17:59.943Z,1.83
2022-10-19T10:21:25.433Z,5.10
2022-10-19T10:24:45.387Z,4.50
2022-10-19T10:27:57.751Z,1.00
2022-10-19T10:31:05.450Z,1.20
2022-10-19T10:34:28.488Z,4.40
2022-10-19T10:37:42.929Z,1.60
2022-10-19T10:41:01.020Z,1.80
2022-10-19T10:44:17.402Z,3.37
2022-10-19T10:47:21.302Z,1.10
2022-10-19T10:50:32.603Z,1.12
2022-10-19T10:53:40.542Z,0.93
2022-10-19T10:56:54.827Z,1.02
2022-10-19T11:00:14.157Z,1.05
2022-10-19T11:06:27.949Z,2.08
2022-10-19T11:09:43.690Z,1.23
2022-10-19T11:12:54.730Z,1.37
2022-10-19T11:16:24.488Z,2.17
2022-10-19T11:19:37.507Z,1.30
2022-10-19T11:23:05.682Z,1.10
2022-10-19T11:26:25.372Z,1.50
2022-10-19T11:29:52.074Z,1.95
2022-10-19T11:34:21.237Z,1.23
2022-10-19T11:37:50.096Z,1.25
2022-10-19T11:41:39.491Z,2.95
2022-10-19T11:44:59.606Z,1.33
2022-10-19T11:48:14.270Z,21.90
2022-10-19T11:51:33.051Z,1.10
2022-10-19T11:55:27.338Z,2.97
2022-10-19T12:02:24.158Z,1.33
2022-10-19T12:05:48.255Z,1.33
2022-10-19T12:09:09.452Z,1.12
2022-10-19T12:12:44.301Z,2.37
2022-10-19T12:15:53.834Z,3.10
2022-10-19T12:19:00.997Z,2.20
2022-10-19T12:22:07.191Z,5.35
2022-10-19T12:25:14.729Z,1.23
2022-10-19T12:28:35.909Z,5.22
2022-10-19T12:31:40.925Z,2.80
2022-10-19T12:35:04.221Z,4.85
2022-10-19T12:38:14.812Z,2.00
2022-10-19T12:41:37.912Z,1.87
2022-10-19T12:45:01.158Z,3.17
2022-10-19T12:48:12.884Z,3.30
2022-10-19T12:51:18.275Z,6.53
2022-10-19T12:54:27.181Z,3.17
2022-10-19T12:57:30.551Z,8.60
2022-10-19T13:00:37.648Z,2.42
2022-10-19T13:03:43.371Z,3.12
2022-10-19T13:07:17.934Z,3.65
2022-10-19T13:10:41.959Z,2.87
2022-10-19T13:14:07.195Z,3.15
2022-10-19T13:17:52.699Z,3.30
2022-10-19T13:21:44.433Z,29.83
2022-10-19T13:28:59.694Z,2.65
2022-10-19T13:33:03.562Z,3.42
2022-10-19T13:37:03.876Z,3.30
2022-10-19T13:40:49.475Z,2.30
2022-10-19T13:44:35.572Z,2.25
2022-10-19T13:47:58.145Z,2.78
2022-10-19T13:51:41.878Z,2.33
2022-10-19T13:56:00.446Z,2.37
2022-10-19T13:59:41.027Z,2.50
2022-10-19T14:07:33.229Z,3.00
2022-10-19T14:11:00.230Z,4.28
2022-10-19T14:14:28.335Z,3.78
2022-10-19T14:17:34.317Z,5.60
2022-10-19T14:20:39.306Z,7.00
2022-10-19T14:23:42.714Z,2.97
2022-10-19T14:26:46.762Z,5.72
2022-10-19T14:29:52.214Z,4.95
2022-10-19T14:32:59.421Z,2.90
2022-10-19T14:43:42.925Z,2.78
2022-10-19T14:51:35.930Z,4.18
2022-10-19T14:54:48.705Z,2.80
2022-10-19T14:57:53.889Z,4.15
2022-10-19T15:01:07.680Z,6.72
2022-10-19T15:04:36.565Z,2.67
2022-10-19T15:08:21.667Z,3.53
2022-10-19T15:11:33.038Z,2.83
2022-10-19T15:14:56.979Z,3.17
2022-10-19T15:18:43.541Z,2.70
2022-10-19T15:22:14.421Z,10.30
2022-10-19T15:25:28.082Z,3.00
2022-10-19T15:28:40.595Z,6.95
2022-10-19T15:31:47.041Z,7.35
2022-10-19T15:34:49.861Z,2.95
2022-10-19T15:38:15.585Z,4.70
2022-10-19T15:41:21.811Z,6.35
2022-10-19T15:44:42.521Z,8.07
2022-10-19T15:48:10.295Z,4.00
2022-10-19T15:51:25.772Z,6.62
2022-10-19T15:54:28.503Z,4.10
2022-10-19T15:57:37.200Z,6.00
2022-10-19T16:00:41.974Z,3.43
2022-10-19T16:03:46.210Z,4.95
2022-10-19T16:06:48.991Z,13.35
2022-10-19T16:09:53.043Z,8.65
2022-10-19T16:12:55.666Z,4.53
2022-10-19T16:16:11.350Z,4.85
2022-10-19T16:19:14.934Z,3.12
2022-10-19T16:22:19.056Z,5.45
2022-10-19T16:25:22.062Z,4.28
2022-10-19T16:28:25.288Z,7.37
2022-10-19T16:31:28.439Z,5.47
2022-10-19T16:34:31.632Z,4.45
2022-10-19T16:37:35.380Z,4.95
2022-10-19T16:40:40.292Z,5.32
2022-10-19T16:43:43.850Z,7.43
2022-10-19T16:46:47.070Z,4.30
2022-10-19T16:49:58.439Z,5.90
2022-10-19T16:53:10.265Z,5.32
2022-10-19T16:56:13.824Z,9.70
2022-10-19T16:59:19.018Z,10.00
2022-10-19T17:02:22.414Z,3.37
2022-10-19T17:05:26.612Z,3.92
2022-10-19T17:08:36.911Z,3.45
2022-10-19T17:11:48.990Z,3.20
2022-10-19T17:14:52.039Z,4.20
2022-10-19T17:17:55.683Z,4.18
2022-10-19T17:21:07.744Z,4.87
2022-10-19T17:24:21.021Z,5.35
2022-10-19T17:27:25.754Z,5.57
2022-10-19T17:30:30.425Z,7.53
2022-10-19T17:33:36.445Z,6.35
2022-10-19T17:36:44.431Z,9.15
2022-10-19T17:39:51.570Z,10.23
2022-10-19T17:42:55.067Z,5.87
2022-10-19T17:46:03.239Z,5.28
2022-10-19T17:49:07.738Z,4.35
2022-10-19T17:52:10.911Z,4.12
2022-10-19T17:55:14.790Z,3.78
2022-10-19T17:58:18.401Z,5.10
2022-10-19T18:01:22.453Z,3.78
2022-10-19T18:04:26.041Z,3.22
2022-10-19T18:07:28.958Z,2.95
2022-10-19T18:10:35.535Z,3.87
2022-10-19T18:13:39.543Z,3.45
2022-10-19T18:16:47.296Z,4.28
2022-10-19T18:19:50.432Z,3.03
2022-10-19T18:22:53.646Z,5.32
2022-10-19T18:26:01.248Z,3.53
2022-10-19T18:29:12.763Z,4.82
2022-10-19T18:32:16.168Z,3.25
2022-10-19T18:35:19.553Z,4.25
2022-10-19T18:38:22.987Z,3.00
2022-10-19T18:41:27.036Z,4.00
2022-10-19T18:44:33.474Z,3.08
2022-10-19T18:47:37.212Z,2.75
2022-10-19T18:50:41.177Z,3.85
2022-10-19T18:53:45.693Z,5.60
2022-10-19T18:56:49.563Z,6.00
2022-10-19T18:59:55.489Z,5.28
2022-10-19T19:02:58.567Z,4.22
2022-10-19T19:06:03.063Z,6.70
2022-10-19T19:09:09.714Z,2.90
2022-10-19T19:12:12.853Z,6.07
2022-10-19T19:15:16.158Z,2.87
2022-10-19T19:18:19.305Z,2.40
2022-10-19T19:21:29.713Z,4.20
2022-10-19T19:24:33.030Z,3.55
2022-10-19T19:30:47.313Z,4.05
2022-10-19T19:33:50.828Z,2.53
2022-10-19T19:36:54.203Z,3.78
2022-10-19T19:39:58.163Z,3.47
2022-10-19T19:43:01.689Z,4.05
2022-10-19T19:46:09.549Z,4.28
2022-10-19T19:49:13.151Z,3.25
2022-10-19T19:52:16.577Z,11.12
2022-10-19T19:55:20.666Z,3.22
2022-10-19T19:58:23.777Z,15.95
2022-10-19T20:01:27.355Z,4.62
2022-10-19T20:04:30.502Z,2.87
2022-10-19T20:07:33.756Z,3.33
2022-10-19T20:10:39.726Z,4.22
2022-10-19T20:13:45.122Z,2.33
2022-10-19T20:16:48.709Z,2.37
2022-10-19T20:19:51.737Z,3.08
2022-10-19T20:22:54.999Z,4.12
2022-10-19T20:25:58.192Z,2.03
2022-10-19T20:29:02.854Z,2.92
2022-10-19T20:32:05.934Z,3.30
2022-10-19T20:35:09.380Z,3.72
2022-10-19T20:38:12.328Z,2.65
2022-10-19T20:41:15.957Z,3.00
2022-10-19T20:44:22.027Z,3.87
2022-10-19T20:47:25.511Z,3.92
2022-10-19T20:50:29.676Z,2.15
2022-10-19T20:53:32.773Z,2.00
2022-10-19T20:56:37.127Z,3.10
2022-10-19T20:59:43.860Z,3.00
2022-10-19T21:02:46.779Z,2.28
2022-10-19T21:05:49.753Z,3.95
2022-10-19T21:08:52.804Z,4.80
2022-10-19T21:11:55.720Z,3.12
2022-10-19T21:14:58.226Z,2.40
2022-10-19T21:18:01.103Z,3.10
2022-10-19T21:21:22.190Z,2.53
2022-10-19T21:24:27.803Z,2.72
2022-10-19T21:27:30.326Z,4.45
2022-10-19T21:30:39.356Z,2.10
2022-10-19T21:33:42.043Z,3.75
2022-10-19T21:36:45.266Z,1.98
2022-10-19T21:39:47.949Z,1.80
2022-10-19T21:42:50.733Z,1.80
2022-10-19T21:45:53.446Z,2.03
2022-10-19T21:48:56.569Z,2.05
2022-10-19T21:51:59.185Z,2.20
2022-10-19T21:55:02.034Z,2.35
2022-10-19T21:58:05.256Z,2.33
2022-10-19T22:01:08.654Z,1.77
2022-10-19T22:04:17.243Z,1.77
2022-10-19T22:07:19.793Z,6.65
2022-10-19T22:10:23.375Z,3.47
2022-10-19T22:13:25.935Z,3.35
2022-10-19T22:16:29.969Z,1.90
2022-10-19T22:19:32.569Z,3.60
2022-10-19T22:22:35.580Z,3.47
2022-10-19T22:25:38.188Z,3.15
2022-10-19T22:28:41.016Z,3.70
2022-10-19T22:31:44.579Z,2.75
2022-10-19T22:34:47.447Z,2.05
2022-10-19T22:37:49.971Z,2.08
2022-10-19T22:41:49.381Z,2.58
2022-10-19T22:45:10.464Z,3.50
2022-10-19T22:48:13.586Z,2.53
2022-10-19T22:51:16.362Z,7.95
2022-10-19T22:54:19.326Z,1.98
2022-10-19T22:57:22.029Z,2.40
2022-10-19T23:00:25.336Z,3.95
2022-10-19T23:03:27.929Z,1.70
2022-10-19T23:06:30.825Z,7.07
2022-10-19T23:09:33.834Z,2.28
2022-10-19T23:12:36.857Z,1.65
2022-10-19T23:15:43.156Z,3.17
2022-10-19T23:18:46.929Z,2.17
2022-10-19T23:21:49.578Z,2.30
2022-10-19T23:24:52.505Z,4.82
2022-10-19T23:27:55.134Z,2.92
2022-10-19T23:31:07.401Z,1.80
2022-10-19T23:34:10.102Z,1.95
2022-10-19T23:37:12.913Z,1.90
2022-10-19T23:40:21.464Z,5.68
2022-10-19T23:43:24.504Z,2.22
2022-10-19T23:46:27.129Z,1.75
2022-10-19T23:49:30.154Z,2.58
